LWM4801 KPUB-KDEN
Flight info
| Callsign | LWM4801 |
|---|---|
| Flight time | N/A |
| Altitude | 19000 |
| Route | AYAYE NIIXX NIIXX4 |
| Aircraft | E145/M-SDFGIRW/S |
Departure
| Time | 2026-05-06 21:51 |
|---|---|
| Airport | Pueblo Memorial Airport (KPUB) |
Arrival
| Time | N/A |
|---|---|
| Airport | Denver International Airport (KDEN) |
| Time | Latitude | Longitude | Altitude | Speed | Heading |
|---|---|---|---|---|---|
| 2026-05-06 21:29 | 38.28414 | -104.49657 | 4659 ft | 0 kts | 179° |
| 2026-05-06 21:42 | 38.28413 | -104.49657 | 4659 ft | 0 kts | 179° |
| 2026-05-06 21:42 | 38.28410 | -104.49657 | 4659 ft | 0 kts | 179° |
| 2026-05-06 21:43 | 38.28409 | -104.49657 | 4659 ft | 0 kts | 179° |
| 2026-05-06 21:45 | 38.28407 | -104.49657 | 4659 ft | 0 kts | 186° |
| 2026-05-06 21:45 | 38.28401 | -104.49669 | 4659 ft | 3 kts | 264° |
| 2026-05-06 21:46 | 38.28430 | -104.49681 | 4659 ft | 6 kts | 6° |
| 2026-05-06 21:46 | 38.28490 | -104.49672 | 4661 ft | 11 kts | 329° |
| 2026-05-06 21:46 | 38.28585 | -104.49701 | 4664 ft | 13 kts | 357° |
| 2026-05-06 21:46 | 38.28663 | -104.49666 | 4667 ft | 11 kts | 49° |
| 2026-05-06 21:47 | 38.28677 | -104.49644 | 4667 ft | 0 kts | 54° |
| 2026-05-06 21:47 | 38.28704 | -104.49586 | 4668 ft | 14 kts | 58° |
| 2026-05-06 21:47 | 38.28751 | -104.49474 | 4669 ft | 14 kts | 76° |
| 2026-05-06 21:47 | 38.28759 | -104.49309 | 4668 ft | 24 kts | 88° |
| 2026-05-06 21:48 | 38.28764 | -104.49076 | 4666 ft | 26 kts | 90° |
| 2026-05-06 21:48 | 38.28769 | -104.48837 | 4663 ft | 27 kts | 88° |
| 2026-05-06 21:48 | 38.28775 | -104.48584 | 4658 ft | 29 kts | 89° |
| 2026-05-06 21:48 | 38.28780 | -104.48320 | 4652 ft | 30 kts | 84° |
| 2026-05-06 21:49 | 38.28788 | -104.48048 | 4647 ft | 31 kts | 91° |
| 2026-05-06 21:49 | 38.28793 | -104.47760 | 4643 ft | 31 kts | 90° |
| 2026-05-06 21:49 | 38.28787 | -104.47499 | 4642 ft | 19 kts | 90° |
| 2026-05-06 21:49 | 38.28805 | -104.47381 | 4642 ft | 4 kts | 333° |
| 2026-05-06 21:50 | 38.28804 | -104.47420 | 4642 ft | 0 kts | 262° |
| 2026-05-06 21:50 | 38.28800 | -104.47527 | 4642 ft | 42 kts | 267° |
| 2026-05-06 21:50 | 38.28784 | -104.48205 | 4650 ft | 109 kts | 268° |
| 2026-05-06 21:51 | 38.28757 | -104.49405 | 4714 ft | 152 kts | 266° |
| 2026-05-06 21:51 | 38.28708 | -104.50791 | 5099 ft | 165 kts | 266° |
| 2026-05-06 21:51 | 38.28644 | -104.52268 | 5661 ft | 171 kts | 262° |
| 2026-05-06 21:51 | 38.28115 | -104.53580 | 6242 ft | 172 kts | 216° |
| 2026-05-06 21:52 | 38.26966 | -104.54132 | 6605 ft | 193 kts | 188° |
| 2026-05-06 21:52 | 38.25469 | -104.54414 | 6676 ft | 236 kts | 187° |
| 2026-05-06 21:52 | 38.23714 | -104.54727 | 6832 ft | 272 kts | 187° |
| 2026-05-06 21:52 | 38.21759 | -104.55070 | 7620 ft | 281 kts | 187° |
| 2026-05-06 21:53 | 38.20099 | -104.55145 | 8346 ft | 281 kts | 170° |